createdAt,value
2023-01-30T00:01:46.278Z,-1.55
2023-01-30T00:04:17.025Z,-1.55
2023-01-30T00:06:45.568Z,-1.52
2023-01-30T00:09:15.240Z,-1.49
2023-01-30T00:11:43.204Z,-1.48
2023-01-30T00:14:11.421Z,-1.47
2023-01-30T00:16:39.490Z,-1.46
2023-01-30T00:19:07.530Z,-1.51
2023-01-30T00:21:35.644Z,-1.54
2023-01-30T00:24:03.726Z,-1.52
2023-01-30T00:26:32.827Z,-1.49
2023-01-30T00:29:02.047Z,-1.51
2023-01-30T00:31:31.818Z,-1.51
2023-01-30T00:33:59.889Z,-1.48
2023-01-30T00:36:27.857Z,-1.45
2023-01-30T00:38:57.204Z,-1.41
2023-01-30T00:41:45.216Z,-1.41
2023-01-30T00:44:32.085Z,-1.37
2023-01-30T00:47:06.882Z,-1.32
2023-01-30T00:49:35.978Z,-1.27
2023-01-30T00:52:04.158Z,-1.24
2023-01-30T00:54:32.236Z,-1.22
2023-01-30T00:57:00.376Z,-1.23
2023-01-30T00:59:28.392Z,-1.22
2023-01-30T01:01:56.420Z,-1.21
2023-01-30T01:04:24.505Z,-1.26
2023-01-30T01:06:52.596Z,-1.27
2023-01-30T01:09:21.280Z,-1.29
2023-01-30T01:11:49.321Z,-1.31
2023-01-30T01:14:17.597Z,-1.30
2023-01-30T01:16:46.040Z,-1.31
2023-01-30T01:19:14.214Z,-1.33
2023-01-30T01:21:42.319Z,-1.38
2023-01-30T01:24:12.843Z,-1.38
2023-01-30T01:26:42.721Z,-1.36
2023-01-30T01:29:16.529Z,-1.34
2023-01-30T01:31:45.635Z,-1.35
2023-01-30T01:34:13.847Z,-1.33
2023-01-30T01:36:54.023Z,-1.34
2023-01-30T01:39:23.462Z,-1.34
2023-01-30T01:41:51.944Z,-1.33
2023-01-30T01:44:19.929Z,-1.32
2023-01-30T01:46:47.904Z,-1.34
2023-01-30T01:49:18.963Z,-1.34
2023-01-30T01:51:50.591Z,-1.36
2023-01-30T01:54:37.693Z,-1.35
2023-01-30T01:57:08.446Z,-1.35
2023-01-30T01:59:40.143Z,-1.34
2023-01-30T02:02:10.760Z,-1.33
2023-01-30T02:04:59.455Z,-1.34
2023-01-30T02:07:30.126Z,-1.40
2023-01-30T02:09:58.875Z,-1.43
2023-01-30T02:12:26.944Z,-1.43
2023-01-30T02:14:56.817Z,-1.46
2023-01-30T02:17:25.110Z,-1.51
2023-01-30T02:20:16.993Z,-1.50
2023-01-30T02:23:14.578Z,-1.50
2023-01-30T02:25:56.993Z,-1.47
2023-01-30T02:28:34.429Z,-1.45
2023-01-30T02:31:07.941Z,-1.42
2023-01-30T02:33:45.639Z,-1.41
2023-01-30T02:36:25.761Z,-1.41
2023-01-30T02:39:03.191Z,-1.39
2023-01-30T02:41:49.011Z,-1.40
2023-01-30T02:44:23.416Z,-1.41
2023-01-30T02:46:57.440Z,-1.39
2023-01-30T02:49:34.402Z,-1.36
2023-01-30T02:52:03.840Z,-1.33
2023-01-30T02:54:32.888Z,-1.31
2023-01-30T02:57:01.321Z,-1.29
2023-01-30T02:59:30.166Z,-1.23
2023-01-30T03:02:17.634Z,-1.21
2023-01-30T03:04:58.789Z,-1.18
2023-01-30T03:07:36.320Z,-1.16
2023-01-30T03:10:11.569Z,-1.15
2023-01-30T03:12:59.118Z,-1.15
2023-01-30T03:15:31.179Z,-1.14
2023-01-30T03:17:59.926Z,-1.14
2023-01-30T03:20:28.561Z,-1.15
2023-01-30T03:22:57.141Z,-1.17
2023-01-30T03:25:27.211Z,-1.20
2023-01-30T03:27:56.224Z,-1.22
2023-01-30T03:30:25.961Z,-1.23
2023-01-30T03:32:59.156Z,-1.28
2023-01-30T03:35:27.337Z,-1.33
2023-01-30T03:37:55.386Z,-1.32
2023-01-30T03:40:23.480Z,-1.31
2023-01-30T03:42:52.000Z,-1.29
2023-01-30T03:45:20.319Z,-1.30
2023-01-30T03:47:48.975Z,-1.29
2023-01-30T03:50:18.104Z,-1.27
2023-01-30T03:52:47.125Z,-1.26
2023-01-30T03:55:18.016Z,-1.25
2023-01-30T03:57:46.719Z,-1.25
2023-01-30T04:00:15.935Z,-1.26
2023-01-30T04:02:46.904Z,-1.27
2023-01-30T04:05:16.371Z,-1.31
2023-01-30T04:07:50.837Z,-1.34
2023-01-30T04:10:20.177Z,-1.34
2023-01-30T04:12:48.756Z,-1.38
2023-01-30T04:15:17.740Z,-1.44
2023-01-30T04:17:48.511Z,-1.48
2023-01-30T04:20:39.651Z,-1.51
2023-01-30T04:23:07.865Z,-1.53
2023-01-30T04:25:36.654Z,-1.52
2023-01-30T04:28:08.722Z,-1.53
2023-01-30T04:30:39.289Z,-1.53
2023-01-30T04:33:30.541Z,-1.52
2023-01-30T04:36:00.564Z,-1.52
2023-01-30T04:38:29.913Z,-1.52
2023-01-30T04:40:58.645Z,-1.49
2023-01-30T04:43:28.786Z,-1.49
2023-01-30T04:46:11.892Z,-1.48
2023-01-30T04:48:41.259Z,-1.48
2023-01-30T04:51:09.520Z,-1.51
2023-01-30T04:53:38.963Z,-1.56
2023-01-30T04:56:07.497Z,-1.60
2023-01-30T04:58:35.638Z,-1.59
2023-01-30T05:01:17.057Z,-1.58
2023-01-30T05:03:45.251Z,-1.59
2023-01-30T05:06:13.279Z,-1.61
2023-01-30T05:08:41.622Z,-1.61
2023-01-30T05:11:09.807Z,-1.60
2023-01-30T05:13:38.107Z,-1.61
2023-01-30T05:16:06.942Z,-1.61
2023-01-30T05:18:35.889Z,-1.64
2023-01-30T05:21:14.187Z,-1.66
2023-01-30T05:23:42.443Z,-1.67
2023-01-30T05:26:11.449Z,-1.68
2023-01-30T05:28:39.537Z,-1.67
2023-01-30T05:31:09.139Z,-1.66
2023-01-30T05:33:37.706Z,-1.67
2023-01-30T05:36:06.492Z,-1.67
2023-01-30T05:38:34.798Z,-1.66
2023-01-30T05:41:07.096Z,-1.67
2023-01-30T05:43:35.560Z,-1.72
2023-01-30T05:46:04.594Z,-1.74
2023-01-30T05:48:33.528Z,-1.72
2023-01-30T05:51:01.610Z,-1.72
2023-01-30T05:53:31.712Z,-1.68
2023-01-30T05:56:02.059Z,-1.62
2023-01-30T05:58:30.715Z,-1.55
2023-01-30T06:01:02.714Z,-1.49
2023-01-30T06:03:31.522Z,-1.42
2023-01-30T06:06:01.410Z,-1.38
2023-01-30T06:08:29.647Z,-1.36
2023-01-30T06:11:02.672Z,-1.35
2023-01-30T06:13:30.763Z,-1.36
2023-01-30T06:15:59.104Z,-1.40
2023-01-30T06:18:27.915Z,-1.42
2023-01-30T06:20:56.608Z,-1.43
2023-01-30T06:23:24.890Z,-1.44
2023-01-30T06:25:53.585Z,-1.47
2023-01-30T06:28:23.075Z,-1.53
2023-01-30T06:30:51.723Z,-1.57
2023-01-30T06:33:19.799Z,-1.58
2023-01-30T06:35:51.737Z,-1.58
2023-01-30T06:38:21.059Z,-1.58
2023-01-30T06:41:02.490Z,-1.57
2023-01-30T06:43:31.113Z,-1.55
2023-01-30T06:46:00.463Z,-1.53
2023-01-30T06:48:29.140Z,-1.51
2023-01-30T06:50:57.500Z,-1.48
2023-01-30T06:53:30.465Z,-1.46
2023-01-30T06:55:59.792Z,-1.42
2023-01-30T06:58:28.472Z,-1.41
2023-01-30T07:00:57.141Z,-1.44
2023-01-30T07:03:25.475Z,-1.46
2023-01-30T07:05:54.124Z,-1.42
2023-01-30T07:08:24.199Z,-1.35
2023-01-30T07:10:52.642Z,-1.27
2023-01-30T07:13:21.072Z,-1.21
2023-01-30T07:15:49.080Z,-1.12
2023-01-30T07:18:17.207Z,-1.04
2023-01-30T07:20:49.841Z,-1.00
2023-01-30T07:23:18.399Z,-0.95
2023-01-30T07:25:46.734Z,-0.91
2023-01-30T07:28:15.174Z,-0.89
2023-01-30T07:30:43.384Z,-0.86
2023-01-30T07:33:12.012Z,-0.84
2023-01-30T07:35:40.397Z,-0.82
2023-01-30T07:38:08.753Z,-0.84
2023-01-30T07:40:37.064Z,-0.90
2023-01-30T07:43:07.981Z,-0.96
2023-01-30T07:45:39.419Z,-0.94
2023-01-30T07:48:10.059Z,-0.88
2023-01-30T07:50:38.944Z,-0.83
2023-01-30T07:53:09.369Z,-0.82
2023-01-30T07:55:38.390Z,-0.81
2023-01-30T07:58:06.666Z,-0.76
2023-01-30T08:00:35.513Z,-0.67
2023-01-30T08:03:03.907Z,-0.57
2023-01-30T08:05:32.410Z,-0.51
2023-01-30T08:08:01.067Z,-0.48
2023-01-30T08:10:29.280Z,-0.44
2023-01-30T08:12:57.768Z,-0.40
2023-01-30T08:15:26.259Z,-0.37
2023-01-30T08:17:56.703Z,-0.30
2023-01-30T08:20:26.584Z,-0.25
2023-01-30T08:22:55.784Z,-0.18
2023-01-30T08:25:24.375Z,-0.10
2023-01-30T08:27:53.361Z,-0.01
2023-01-30T08:30:23.177Z,0.07
2023-01-30T08:32:51.439Z,0.14
2023-01-30T08:35:19.726Z,0.19
2023-01-30T08:37:47.962Z,0.30
2023-01-30T08:40:17.272Z,0.38
2023-01-30T08:42:46.330Z,0.44
2023-01-30T08:45:15.376Z,0.49
2023-01-30T08:47:44.055Z,0.51
2023-01-30T08:50:12.796Z,0.49
2023-01-30T08:52:41.227Z,0.58
2023-01-30T08:55:10.144Z,0.65
2023-01-30T08:57:38.679Z,0.75
2023-01-30T09:00:09.105Z,0.81
2023-01-30T09:02:37.999Z,0.85
2023-01-30T09:05:07.734Z,0.88
2023-01-30T09:07:36.625Z,0.84
2023-01-30T09:10:05.695Z,0.81
2023-01-30T09:12:34.252Z,0.78
2023-01-30T09:15:02.662Z,0.80
2023-01-30T09:17:31.232Z,0.80
2023-01-30T09:20:00.655Z,0.77
2023-01-30T09:22:29.155Z,0.82
2023-01-30T09:24:59.180Z,0.86
2023-01-30T09:27:28.045Z,0.94
2023-01-30T09:29:56.566Z,1.05
2023-01-30T09:32:24.925Z,1.12
2023-01-30T09:34:53.512Z,1.23
2023-01-30T09:37:21.772Z,1.30
2023-01-30T09:39:50.007Z,1.36
2023-01-30T09:42:38.141Z,1.41
2023-01-30T09:45:32.619Z,1.53
2023-01-30T09:48:18.006Z,1.55
2023-01-30T09:50:51.447Z,1.45
2023-01-30T09:53:32.003Z,1.46
2023-01-30T09:56:00.514Z,1.54
2023-01-30T09:58:43.590Z,1.60
2023-01-30T10:01:21.537Z,1.48
2023-01-30T10:04:02.037Z,1.42
2023-01-30T10:06:33.639Z,1.48
2023-01-30T10:09:08.274Z,1.66
2023-01-30T10:12:04.897Z,1.78
2023-01-30T10:14:47.551Z,1.76
2023-01-30T10:17:54.354Z,1.73
2023-01-30T10:20:22.937Z,1.81
2023-01-30T10:22:57.562Z,1.82
2023-01-30T10:25:33.030Z,1.76
2023-01-30T10:28:16.672Z,1.63
2023-01-30T10:30:48.841Z,1.59
2023-01-30T10:33:50.481Z,1.57
2023-01-30T10:36:26.001Z,1.46
2023-01-30T10:38:55.216Z,1.36
2023-01-30T10:41:31.030Z,1.25
2023-01-30T10:44:15.000Z,1.24
2023-01-30T10:46:49.312Z,1.22
2023-01-30T10:49:32.114Z,1.19
2023-01-30T10:52:24.491Z,1.18
2023-01-30T10:55:22.153Z,1.18
2023-01-30T10:58:05.612Z,1.12
2023-01-30T11:00:44.306Z,1.04
2023-01-30T11:03:27.748Z,1.07
2023-01-30T11:06:05.397Z,1.06
2023-01-30T11:08:36.024Z,1.10
2023-01-30T11:11:49.892Z,1.11
2023-01-30T11:14:18.604Z,1.10
2023-01-30T11:16:57.937Z,1.08
2023-01-30T11:19:34.080Z,1.10
2023-01-30T11:22:05.047Z,1.12
2023-01-30T11:24:41.490Z,0.99
2023-01-30T11:27:12.718Z,0.94
2023-01-30T11:29:41.097Z,0.99
2023-01-30T11:32:20.068Z,1.07
2023-01-30T11:35:04.724Z,1.10
2023-01-30T11:37:44.228Z,1.11
2023-01-30T11:40:19.542Z,1.24
2023-01-30T11:42:50.172Z,1.30
2023-01-30T11:45:27.140Z,1.30
2023-01-30T11:48:05.073Z,1.26
2023-01-30T11:50:49.719Z,1.22
2023-01-30T11:53:56.268Z,1.21
2023-01-30T11:56:54.158Z,1.25
2023-01-30T11:59:31.485Z,1.32
2023-01-30T12:02:15.008Z,1.34
2023-01-30T12:04:45.428Z,1.21
2023-01-30T12:07:29.188Z,1.18
2023-01-30T12:09:59.148Z,1.26
2023-01-30T12:12:50.599Z,1.35
2023-01-30T12:15:27.965Z,1.53
2023-01-30T12:18:05.756Z,1.67
2023-01-30T12:20:49.790Z,1.71
2023-01-30T12:23:33.552Z,1.69
2023-01-30T12:26:15.490Z,1.68
2023-01-30T12:28:55.480Z,1.73
2023-01-30T12:31:33.119Z,1.76
2023-01-30T12:34:05.031Z,1.89
2023-01-30T12:36:36.358Z,1.93
2023-01-30T12:39:28.067Z,1.88
2023-01-30T12:42:34.260Z,1.69
2023-01-30T12:45:16.530Z,1.50
2023-01-30T12:48:06.742Z,1.30
2023-01-30T12:50:56.501Z,1.25
2023-01-30T12:53:40.496Z,1.22
2023-01-30T12:56:27.011Z,1.29
2023-01-30T12:59:07.202Z,1.34
2023-01-30T13:02:06.987Z,1.30
2023-01-30T13:04:56.677Z,1.15
2023-01-30T13:07:40.086Z,1.04
2023-01-30T13:10:37.064Z,0.95
2023-01-30T13:13:05.374Z,0.84
2023-01-30T13:15:55.569Z,0.78
2023-01-30T13:18:45.443Z,0.82
2023-01-30T13:21:21.995Z,0.84
2023-01-30T13:24:11.649Z,0.89
2023-01-30T13:26:43.487Z,0.85
2023-01-30T13:29:32.896Z,0.79
2023-01-30T13:32:06.305Z,0.76
2023-01-30T13:34:39.280Z,0.77
2023-01-30T13:37:16.833Z,0.73
2023-01-30T13:39:53.186Z,0.68
2023-01-30T13:42:53.975Z,0.60
2023-01-30T13:45:30.787Z,0.50
2023-01-30T13:48:07.671Z,0.38
2023-01-30T13:51:13.619Z,0.34
2023-01-30T13:53:55.497Z,0.35
2023-01-30T13:56:44.961Z,0.34
2023-01-30T13:59:44.338Z,0.31
2023-01-30T14:02:30.583Z,0.25
2023-01-30T14:04:59.099Z,0.20
2023-01-30T14:07:39.773Z,0.18
2023-01-30T14:10:11.113Z,0.14
2023-01-30T14:12:51.966Z,0.09
2023-01-30T14:15:29.295Z,0.06
2023-01-30T14:18:06.248Z,0.01
2023-01-30T14:20:45.098Z,-0.08
2023-01-30T14:23:16.534Z,-0.09
2023-01-30T14:25:48.126Z,-0.13
2023-01-30T14:28:16.775Z,-0.16
2023-01-30T14:30:49.788Z,-0.15
2023-01-30T14:33:21.242Z,-0.15
2023-01-30T14:36:12.372Z,-0.15
2023-01-30T14:38:42.696Z,-0.16
2023-01-30T14:41:28.472Z,-0.17
2023-01-30T14:43:57.453Z,-0.16
2023-01-30T14:46:26.092Z,-0.17
2023-01-30T14:49:01.890Z,-0.18
2023-01-30T14:51:36.831Z,-0.20
2023-01-30T14:54:17.277Z,-0.23
2023-01-30T14:57:00.041Z,-0.25
2023-01-30T14:59:39.475Z,-0.26
2023-01-30T15:02:14.189Z,-0.30
2023-01-30T15:04:48.381Z,-0.29
2023-01-30T15:07:55.883Z,-0.28
2023-01-30T15:11:01.425Z,-0.33
2023-01-30T15:13:52.029Z,-0.35
2023-01-30T15:16:23.733Z,-0.37
2023-01-30T15:19:10.459Z,-0.40
2023-01-30T15:21:56.900Z,-0.39
2023-01-30T15:24:56.710Z,-0.42
2023-01-30T15:27:47.543Z,-0.41
2023-01-30T15:30:19.144Z,-0.38
2023-01-30T15:32:48.486Z,-0.33
2023-01-30T15:35:17.249Z,-0.25
2023-01-30T15:37:45.965Z,-0.17
2023-01-30T15:40:20.511Z,-0.10
2023-01-30T15:42:57.789Z,-0.11
2023-01-30T15:45:53.967Z,-0.16
2023-01-30T15:48:59.218Z,-0.21
2023-01-30T15:51:30.601Z,-0.30
2023-01-30T15:54:01.464Z,-0.31
2023-01-30T15:56:32.198Z,-0.29
2023-01-30T15:59:02.638Z,-0.28
2023-01-30T16:01:31.363Z,-0.26
2023-01-30T16:04:00.726Z,-0.28
2023-01-30T16:06:34.878Z,-0.31
2023-01-30T16:09:24.081Z,-0.31
2023-01-30T16:11:52.849Z,-0.31
2023-01-30T16:14:22.863Z,-0.34
2023-01-30T16:16:56.164Z,-0.35
2023-01-30T16:19:28.789Z,-0.35
2023-01-30T16:22:01.338Z,-0.38
2023-01-30T16:24:33.042Z,-0.42
2023-01-30T16:27:07.005Z,-0.43
2023-01-30T16:29:50.802Z,-0.42
2023-01-30T16:32:25.553Z,-0.45
2023-01-30T16:35:29.222Z,-0.50
2023-01-30T16:38:00.370Z,-0.54
2023-01-30T16:40:44.593Z,-0.56
2023-01-30T16:43:34.414Z,-0.57
2023-01-30T16:46:31.760Z,-0.62
2023-01-30T16:49:04.075Z,-0.67
2023-01-30T16:51:32.477Z,-0.67
2023-01-30T16:54:03.997Z,-0.64
2023-01-30T16:56:34.772Z,-0.63
2023-01-30T16:59:03.814Z,-0.62
2023-01-30T17:01:38.993Z,-0.61
2023-01-30T17:04:09.263Z,-0.60
2023-01-30T17:06:40.010Z,-0.58
2023-01-30T17:09:30.703Z,-0.59
2023-01-30T17:11:59.189Z,-0.61
2023-01-30T17:14:33.021Z,-0.63
2023-01-30T17:17:02.871Z,-0.68
2023-01-30T17:19:31.255Z,-0.67
2023-01-30T17:22:01.969Z,-0.65
2023-01-30T17:24:31.362Z,-0.65
2023-01-30T17:27:02.710Z,-0.65
2023-01-30T17:29:48.835Z,-0.64
2023-01-30T17:32:17.567Z,-0.64
2023-01-30T17:34:45.839Z,-0.65
2023-01-30T17:37:20.203Z,-0.65
2023-01-30T17:39:48.979Z,-0.64
2023-01-30T17:42:22.381Z,-0.64
2023-01-30T17:44:50.714Z,-0.63
2023-01-30T17:47:18.989Z,-0.63
2023-01-30T17:49:47.446Z,-0.63
2023-01-30T17:52:15.559Z,-0.64
2023-01-30T17:54:44.028Z,-0.64
2023-01-30T17:57:17.521Z,-0.65
2023-01-30T17:59:47.229Z,-0.67
2023-01-30T18:02:15.274Z,-0.64
2023-01-30T18:04:43.472Z,-0.59
2023-01-30T18:07:14.404Z,-0.55
2023-01-30T18:09:43.141Z,-0.51
2023-01-30T18:12:11.170Z,-0.47
2023-01-30T18:14:39.316Z,-0.44
2023-01-30T18:17:09.674Z,-0.39
2023-01-30T18:19:37.877Z,-0.36
2023-01-30T18:22:05.962Z,-0.37
2023-01-30T18:24:34.386Z,-0.39
2023-01-30T18:27:02.414Z,-0.39
2023-01-30T18:29:30.757Z,-0.42
2023-01-30T18:32:05.106Z,-0.46
2023-01-30T18:34:33.280Z,-0.50
2023-01-30T18:37:01.486Z,-0.51
2023-01-30T18:39:29.819Z,-0.52
2023-01-30T18:41:58.043Z,-0.52
2023-01-30T18:44:26.153Z,-0.55
2023-01-30T18:46:54.407Z,-0.59
2023-01-30T18:49:22.410Z,-0.62
2023-01-30T18:51:50.843Z,-0.64
2023-01-30T18:54:19.078Z,-0.68
2023-01-30T18:56:47.350Z,-0.72
2023-01-30T18:59:15.516Z,-0.74
2023-01-30T19:01:47.116Z,-0.74
2023-01-30T19:04:15.082Z,-0.72
2023-01-30T19:06:43.627Z,-0.71
2023-01-30T19:09:17.463Z,-0.70
2023-01-30T19:12:04.370Z,-0.68
2023-01-30T19:14:32.440Z,-0.65
2023-01-30T19:17:00.390Z,-0.61
2023-01-30T19:19:28.810Z,-0.56
2023-01-30T19:21:57.241Z,-0.50
2023-01-30T19:24:25.271Z,-0.45
2023-01-30T19:26:53.298Z,-0.40
2023-01-30T19:29:21.409Z,-0.35
2023-01-30T19:31:49.592Z,-0.34
2023-01-30T19:34:17.920Z,-0.37
2023-01-30T19:36:45.933Z,-0.35
2023-01-30T19:39:14.102Z,-0.31
2023-01-30T19:41:42.159Z,-0.28
2023-01-30T19:44:12.052Z,-0.32
2023-01-30T19:46:41.078Z,-0.40
2023-01-30T19:49:11.700Z,-0.46
2023-01-30T19:51:40.854Z,-0.46
2023-01-30T19:54:11.853Z,-0.48
2023-01-30T19:56:42.096Z,-0.50
2023-01-30T19:59:11.598Z,-0.53
2023-01-30T20:01:40.773Z,-0.59
2023-01-30T20:04:08.954Z,-0.65
2023-01-30T20:06:37.969Z,-0.71
2023-01-30T20:09:11.171Z,-0.74
2023-01-30T20:11:41.876Z,-0.79
2023-01-30T20:14:11.373Z,-0.82
2023-01-30T20:16:40.230Z,-0.84
2023-01-30T20:19:15.834Z,-0.82
2023-01-30T20:21:44.664Z,-0.83
2023-01-30T20:24:14.926Z,-0.82
2023-01-30T20:26:47.880Z,-0.80
2023-01-30T20:29:17.794Z,-0.76
2023-01-30T20:31:46.484Z,-0.72
2023-01-30T20:34:15.329Z,-0.68
2023-01-30T20:36:43.749Z,-0.63
2023-01-30T20:39:12.167Z,-0.60
2023-01-30T20:41:40.441Z,-0.58
2023-01-30T20:44:12.213Z,-0.58
2023-01-30T20:46:43.436Z,-0.65
2023-01-30T20:49:15.499Z,-0.74
2023-01-30T20:51:43.824Z,-0.82
2023-01-30T20:54:14.356Z,-0.85
2023-01-30T20:56:45.442Z,-0.87
2023-01-30T20:59:17.211Z,-0.89
2023-01-30T21:01:45.835Z,-0.91
2023-01-30T21:04:15.815Z,-0.95
2023-01-30T21:06:46.787Z,-0.99
2023-01-30T21:09:18.047Z,-1.02
2023-01-30T21:11:47.764Z,-1.02
2023-01-30T21:14:16.944Z,-0.99
2023-01-30T21:16:45.574Z,-0.96
2023-01-30T21:19:16.486Z,-0.92
2023-01-30T21:21:51.402Z,-0.87
2023-01-30T21:24:27.408Z,-0.82
2023-01-30T21:26:56.344Z,-0.81
2023-01-30T21:29:27.209Z,-0.82
2023-01-30T21:31:57.305Z,-0.77
2023-01-30T21:34:25.820Z,-0.73
2023-01-30T21:37:12.887Z,-0.74
2023-01-30T21:39:59.577Z,-0.77
2023-01-30T21:42:46.315Z,-0.76
2023-01-30T21:45:15.438Z,-0.80
2023-01-30T21:47:43.952Z,-0.87
2023-01-30T21:50:12.301Z,-0.97
2023-01-30T21:52:40.215Z,-1.01
2023-01-30T21:55:09.280Z,-1.01
2023-01-30T21:57:37.586Z,-1.00
2023-01-30T22:00:06.541Z,-1.01
2023-01-30T22:02:34.505Z,-0.98
2023-01-30T22:05:02.529Z,-0.92
2023-01-30T22:07:32.096Z,-0.85
2023-01-30T22:10:02.460Z,-0.80
2023-01-30T22:12:32.665Z,-0.76
2023-01-30T22:15:00.808Z,-0.75
2023-01-30T22:17:28.843Z,-0.73
2023-01-30T22:19:56.995Z,-0.71
2023-01-30T22:22:26.552Z,-0.71
2023-01-30T22:24:54.801Z,-0.69
2023-01-30T22:27:23.124Z,-0.68
2023-01-30T22:29:51.680Z,-0.82
2023-01-30T22:32:20.430Z,-0.92
2023-01-30T22:34:48.568Z,-0.95
2023-01-30T22:37:16.586Z,-1.05
2023-01-30T22:39:44.555Z,-1.11
2023-01-30T22:42:12.520Z,-1.14
2023-01-30T22:44:40.710Z,-1.17
2023-01-30T22:47:08.794Z,-1.15
2023-01-30T22:49:37.058Z,-1.14
2023-01-30T22:52:05.416Z,-1.11
2023-01-30T22:54:33.564Z,-1.10
2023-01-30T22:57:01.620Z,-1.07
2023-01-30T22:59:29.844Z,-1.00
2023-01-30T23:01:57.843Z,-0.95
2023-01-30T23:04:26.478Z,-0.88
2023-01-30T23:06:54.433Z,-0.80
2023-01-30T23:09:23.534Z,-0.72
2023-01-30T23:12:13.255Z,-0.66
2023-01-30T23:14:43.020Z,-0.67
2023-01-30T23:17:30.159Z,-0.69
2023-01-30T23:19:58.335Z,-0.78
2023-01-30T23:22:26.407Z,-0.91
2023-01-30T23:24:54.503Z,-1.02
2023-01-30T23:27:22.525Z,-1.09
2023-01-30T23:29:50.615Z,-1.14
2023-01-30T23:32:20.208Z,-1.17
2023-01-30T23:34:48.527Z,-1.17
2023-01-30T23:37:17.617Z,-1.17
2023-01-30T23:39:45.679Z,-1.18
2023-01-30T23:42:13.750Z,-1.16
2023-01-30T23:44:41.711Z,-1.13
2023-01-30T23:47:09.716Z,-1.14
2023-01-30T23:49:37.913Z,-1.14
2023-01-30T23:52:06.252Z,-1.10
2023-01-30T23:54:34.256Z,-1.07
2023-01-30T23:57:02.367Z,-1.06
2023-01-30T23:59:30.531Z,-1.01
